sensor_id;sensor_type;location;lat;lon;timestamp;temperature;humidity
23405;DHT22;11875;49.356;2.718;2023-04-03T00:01:28;8.30;99.90
23405;DHT22;11875;49.356;2.718;2023-04-03T00:03:55;8.30;99.90
23405;DHT22;11875;49.356;2.718;2023-04-03T00:06:21;8.30;99.90
23405;DHT22;11875;49.356;2.718;2023-04-03T00:08:47;8.20;99.90
23405;DHT22;11875;49.356;2.718;2023-04-03T00:11:13;8.30;99.90
23405;DHT22;11875;49.356;2.718;2023-04-03T00:13:39;8.30;99.90
23405;DHT22;11875;49.356;2.718;2023-04-03T00:16:06;8.30;99.90
23405;DHT22;11875;49.356;2.718;2023-04-03T00:18:31;8.30;99.90
23405;DHT22;11875;49.356;2.718;2023-04-03T00:20:57;8.30;99.90
23405;DHT22;11875;49.356;2.718;2023-04-03T00:23:23;8.20;99.90
23405;DHT22;11875;49.356;2.718;2023-04-03T00:25:49;8.30;99.90
23405;DHT22;11875;49.356;2.718;2023-04-03T00:28:15;8.30;99.90
23405;DHT22;11875;49.356;2.718;2023-04-03T00:30:41;8.30;99.90
23405;DHT22;11875;49.356;2.718;2023-04-03T00:33:06;8.40;99.90
23405;DHT22;11875;49.356;2.718;2023-04-03T00:35:34;8.50;99.90
23405;DHT22;11875;49.356;2.718;2023-04-03T00:38:00;8.50;99.90
23405;DHT22;11875;49.356;2.718;2023-04-03T00:40:27;8.60;99.90
23405;DHT22;11875;49.356;2.718;2023-04-03T00:42:57;8.60;99.90
23405;DHT22;11875;49.356;2.718;2023-04-03T00:45:31;8.70;99.90
23405;DHT22;11875;49.356;2.718;2023-04-03T00:47:58;8.70;99.90
23405;DHT22;11875;49.356;2.718;2023-04-03T00:50:27;8.70;99.90
23405;DHT22;11875;49.356;2.718;2023-04-03T00:52:55;9.60;99.90
23405;DHT22;11875;49.356;2.718;2023-04-03T00:55:21;8.60;99.90
23405;DHT22;11875;49.356;2.718;2023-04-03T00:57:48;8.60;99.90
23405;DHT22;11875;49.356;2.718;2023-04-03T01:00:17;8.70;99.90
23405;DHT22;11875;49.356;2.718;2023-04-03T01:02:44;8.70;99.90
23405;DHT22;11875;49.356;2.718;2023-04-03T01:05:11;8.60;99.90
23405;DHT22;11875;49.356;2.718;2023-04-03T01:07:37;9.10;99.90
23405;DHT22;11875;49.356;2.718;2023-04-03T01:10:06;8.50;99.90
23405;DHT22;11875;49.356;2.718;2023-04-03T01:12:36;8.50;99.90
23405;DHT22;11875;49.356;2.718;2023-04-03T01:15:10;8.60;99.90
23405;DHT22;11875;49.356;2.718;2023-04-03T01:17:50;8.50;99.90
23405;DHT22;11875;49.356;2.718;2023-04-03T01:25:26;8.70;99.90
23405;DHT22;11875;49.356;2.718;2023-04-03T01:27:52;8.90;99.90
23405;DHT22;11875;49.356;2.718;2023-04-03T01:30:19;8.60;99.90
23405;DHT22;11875;49.356;2.718;2023-04-03T01:32:46;9.50;99.90
23405;DHT22;11875;49.356;2.718;2023-04-03T01:35:12;8.50;99.90
23405;DHT22;11875;49.356;2.718;2023-04-03T01:37:38;8.50;99.90
23405;DHT22;11875;49.356;2.718;2023-04-03T01:40:04;8.50;99.90
23405;DHT22;11875;49.356;2.718;2023-04-03T01:42:31;8.50;99.90
23405;DHT22;11875;49.356;2.718;2023-04-03T01:44:56;8.40;99.90
23405;DHT22;11875;49.356;2.718;2023-04-03T01:47:22;8.40;99.90
23405;DHT22;11875;49.356;2.718;2023-04-03T01:49:48;8.40;99.90
23405;DHT22;11875;49.356;2.718;2023-04-03T01:52:13;8.50;99.90
23405;DHT22;11875;49.356;2.718;2023-04-03T01:54:39;8.50;99.90
23405;DHT22;11875;49.356;2.718;2023-04-03T01:57:05;8.50;99.90
23405;DHT22;11875;49.356;2.718;2023-04-03T01:59:31;8.80;99.90
23405;DHT22;11875;49.356;2.718;2023-04-03T02:01:56;8.40;99.90
23405;DHT22;11875;49.356;2.718;2023-04-03T02:04:22;8.40;99.90
23405;DHT22;11875;49.356;2.718;2023-04-03T02:06:48;8.40;99.90
23405;DHT22;11875;49.356;2.718;2023-04-03T02:09:13;8.40;99.90
23405;DHT22;11875;49.356;2.718;2023-04-03T02:11:39;8.50;99.90
23405;DHT22;11875;49.356;2.718;2023-04-03T02:14:05;8.70;99.90
23405;DHT22;11875;49.356;2.718;2023-04-03T02:16:31;8.40;99.90
23405;DHT22;11875;49.356;2.718;2023-04-03T02:18:57;8.40;99.90
23405;DHT22;11875;49.356;2.718;2023-04-03T02:21:22;8.40;99.90
23405;DHT22;11875;49.356;2.718;2023-04-03T02:23:48;8.30;99.90
23405;DHT22;11875;49.356;2.718;2023-04-03T02:26:15;8.20;99.90
23405;DHT22;11875;49.356;2.718;2023-04-03T02:28:41;8.30;99.90
23405;DHT22;11875;49.356;2.718;2023-04-03T02:31:07;8.30;99.90
23405;DHT22;11875;49.356;2.718;2023-04-03T02:33:34;8.30;99.90
23405;DHT22;11875;49.356;2.718;2023-04-03T02:36:01;8.50;99.90
23405;DHT22;11875;49.356;2.718;2023-04-03T02:38:26;8.70;99.90
23405;DHT22;11875;49.356;2.718;2023-04-03T02:40:52;8.10;99.90
23405;DHT22;11875;49.356;2.718;2023-04-03T02:43:18;8.10;99.90
23405;DHT22;11875;49.356;2.718;2023-04-03T02:45:43;9.00;99.90
23405;DHT22;11875;49.356;2.718;2023-04-03T02:48:09;8.20;99.90
23405;DHT22;11875;49.356;2.718;2023-04-03T02:50:35;7.70;99.90
23405;DHT22;11875;49.356;2.718;2023-04-03T02:53:00;7.60;99.90
23405;DHT22;11875;49.356;2.718;2023-04-03T02:55:26;7.60;99.90
23405;DHT22;11875;49.356;2.718;2023-04-03T02:57:52;7.60;99.90
23405;DHT22;11875;49.356;2.718;2023-04-03T03:00:17;7.60;99.90
23405;DHT22;11875;49.356;2.718;2023-04-03T03:02:43;7.50;99.90
23405;DHT22;11875;49.356;2.718;2023-04-03T03:05:09;7.40;99.90
23405;DHT22;11875;49.356;2.718;2023-04-03T03:07:34;7.40;99.90
23405;DHT22;11875;49.356;2.718;2023-04-03T03:10:00;7.30;99.90
23405;DHT22;11875;49.356;2.718;2023-04-03T03:12:26;7.40;99.90
23405;DHT22;11875;49.356;2.718;2023-04-03T03:14:51;8.40;99.90
23405;DHT22;11875;49.356;2.718;2023-04-03T03:17:17;7.40;99.90
23405;DHT22;11875;49.356;2.718;2023-04-03T03:19:43;7.30;99.90
23405;DHT22;11875;49.356;2.718;2023-04-03T03:22:09;8.30;99.90
23405;DHT22;11875;49.356;2.718;2023-04-03T03:24:35;7.30;99.90
23405;DHT22;11875;49.356;2.718;2023-04-03T03:27:00;7.30;99.90
23405;DHT22;11875;49.356;2.718;2023-04-03T03:29:26;7.50;99.90
23405;DHT22;11875;49.356;2.718;2023-04-03T03:31:51;7.70;99.90
23405;DHT22;11875;49.356;2.718;2023-04-03T03:34:17;7.30;99.90
23405;DHT22;11875;49.356;2.718;2023-04-03T03:36:43;7.20;99.90
23405;DHT22;11875;49.356;2.718;2023-04-03T03:39:09;7.10;99.90
23405;DHT22;11875;49.356;2.718;2023-04-03T03:41:35;7.10;99.90
23405;DHT22;11875;49.356;2.718;2023-04-03T03:44:01;7.20;99.90
23405;DHT22;11875;49.356;2.718;2023-04-03T03:46:26;7.20;99.90
23405;DHT22;11875;49.356;2.718;2023-04-03T03:48:52;7.20;99.90
23405;DHT22;11875;49.356;2.718;2023-04-03T03:51:17;7.20;99.90
23405;DHT22;11875;49.356;2.718;2023-04-03T03:53:43;7.20;99.90
23405;DHT22;11875;49.356;2.718;2023-04-03T03:56:10;7.30;99.90
23405;DHT22;11875;49.356;2.718;2023-04-03T03:58:35;7.30;99.90
23405;DHT22;11875;49.356;2.718;2023-04-03T04:01:05;7.40;99.90
23405;DHT22;11875;49.356;2.718;2023-04-03T04:03:31;7.30;99.90
23405;DHT22;11875;49.356;2.718;2023-04-03T04:05:57;7.20;99.90
23405;DHT22;11875;49.356;2.718;2023-04-03T04:08:23;7.20;99.90
23405;DHT22;11875;49.356;2.718;2023-04-03T04:10:48;7.30;99.90
23405;DHT22;11875;49.356;2.718;2023-04-03T04:13:14;7.30;99.90
23405;DHT22;11875;49.356;2.718;2023-04-03T04:15:40;7.30;99.90
23405;DHT22;11875;49.356;2.718;2023-04-03T04:18:06;7.40;99.90
23405;DHT22;11875;49.356;2.718;2023-04-03T04:20:31;7.40;99.90
23405;DHT22;11875;49.356;2.718;2023-04-03T04:22:57;7.30;99.90
23405;DHT22;11875;49.356;2.718;2023-04-03T04:25:22;7.40;99.90
23405;DHT22;11875;49.356;2.718;2023-04-03T04:27:48;7.40;99.90
23405;DHT22;11875;49.356;2.718;2023-04-03T04:30:14;7.30;99.90
23405;DHT22;11875;49.356;2.718;2023-04-03T04:32:40;8.10;99.90
23405;DHT22;11875;49.356;2.718;2023-04-03T04:35:06;7.10;99.90
23405;DHT22;11875;49.356;2.718;2023-04-03T04:37:32;7.20;99.90
23405;DHT22;11875;49.356;2.718;2023-04-03T04:39:57;7.20;99.90
23405;DHT22;11875;49.356;2.718;2023-04-03T04:42:23;7.20;99.90
23405;DHT22;11875;49.356;2.718;2023-04-03T04:44:49;7.30;99.90
23405;DHT22;11875;49.356;2.718;2023-04-03T04:47:14;7.40;99.90
23405;DHT22;11875;49.356;2.718;2023-04-03T04:49:40;7.30;99.90
23405;DHT22;11875;49.356;2.718;2023-04-03T04:52:05;7.30;99.90
23405;DHT22;11875;49.356;2.718;2023-04-03T04:54:31;7.20;99.90
23405;DHT22;11875;49.356;2.718;2023-04-03T04:56:57;8.20;99.90
23405;DHT22;11875;49.356;2.718;2023-04-03T04:59:23;7.20;99.90
23405;DHT22;11875;49.356;2.718;2023-04-03T05:01:49;7.20;99.90
23405;DHT22;11875;49.356;2.718;2023-04-03T05:04:15;7.10;99.90
23405;DHT22;11875;49.356;2.718;2023-04-03T05:06:40;7.20;99.90
23405;DHT22;11875;49.356;2.718;2023-04-03T05:09:06;7.20;99.90
23405;DHT22;11875;49.356;2.718;2023-04-03T05:11:32;7.20;99.90
23405;DHT22;11875;49.356;2.718;2023-04-03T05:13:58;7.20;99.90
23405;DHT22;11875;49.356;2.718;2023-04-03T05:16:24;7.10;99.90
23405;DHT22;11875;49.356;2.718;2023-04-03T05:18:49;7.10;99.90
23405;DHT22;11875;49.356;2.718;2023-04-03T05:21:15;7.20;99.90
23405;DHT22;11875;49.356;2.718;2023-04-03T05:23:41;7.00;99.90
23405;DHT22;11875;49.356;2.718;2023-04-03T05:26:06;7.00;99.90
23405;DHT22;11875;49.356;2.718;2023-04-03T05:28:32;6.80;99.90
23405;DHT22;11875;49.356;2.718;2023-04-03T05:30:58;6.90;99.90
23405;DHT22;11875;49.356;2.718;2023-04-03T05:33:24;6.80;99.90
23405;DHT22;11875;49.356;2.718;2023-04-03T05:35:52;6.90;99.90
23405;DHT22;11875;49.356;2.718;2023-04-03T05:38:17;6.80;99.90
23405;DHT22;11875;49.356;2.718;2023-04-03T05:40:43;6.90;99.90
23405;DHT22;11875;49.356;2.718;2023-04-03T05:43:09;6.90;99.90
23405;DHT22;11875;49.356;2.718;2023-04-03T05:45:35;6.90;99.90
23405;DHT22;11875;49.356;2.718;2023-04-03T05:48:00;6.80;99.90
23405;DHT22;11875;49.356;2.718;2023-04-03T05:50:26;6.80;99.90
23405;DHT22;11875;49.356;2.718;2023-04-03T05:52:52;6.70;99.90
23405;DHT22;11875;49.356;2.718;2023-04-03T05:55:19;6.70;99.90
23405;DHT22;11875;49.356;2.718;2023-04-03T05:57:45;6.70;99.90
23405;DHT22;11875;49.356;2.718;2023-04-03T06:00:13;6.80;99.90
23405;DHT22;11875;49.356;2.718;2023-04-03T06:02:41;6.70;99.90
23405;DHT22;11875;49.356;2.718;2023-04-03T06:05:08;6.80;99.90
23405;DHT22;11875;49.356;2.718;2023-04-03T06:07:34;6.80;99.90
23405;DHT22;11875;49.356;2.718;2023-04-03T06:10:01;7.20;99.90
23405;DHT22;11875;49.356;2.718;2023-04-03T06:12:27;6.70;99.90
23405;DHT22;11875;49.356;2.718;2023-04-03T06:14:55;6.70;99.90
23405;DHT22;11875;49.356;2.718;2023-04-03T06:17:20;6.70;99.90
23405;DHT22;11875;49.356;2.718;2023-04-03T06:19:46;7.70;99.90
23405;DHT22;11875;49.356;2.718;2023-04-03T06:22:13;6.70;99.90
23405;DHT22;11875;49.356;2.718;2023-04-03T06:24:39;6.80;99.90
23405;DHT22;11875;49.356;2.718;2023-04-03T06:27:05;6.60;99.90
23405;DHT22;11875;49.356;2.718;2023-04-03T06:29:30;6.40;99.90
23405;DHT22;11875;49.356;2.718;2023-04-03T06:31:56;6.50;99.90
23405;DHT22;11875;49.356;2.718;2023-04-03T06:34:22;6.60;99.90
23405;DHT22;11875;49.356;2.718;2023-04-03T06:36:47;6.70;99.90
23405;DHT22;11875;49.356;2.718;2023-04-03T06:39:23;6.70;99.90
23405;DHT22;11875;49.356;2.718;2023-04-03T06:41:50;6.80;99.90
23405;DHT22;11875;49.356;2.718;2023-04-03T06:44:16;6.80;99.90
23405;DHT22;11875;49.356;2.718;2023-04-03T06:46:42;6.90;99.90
23405;DHT22;11875;49.356;2.718;2023-04-03T06:49:09;6.90;99.90
23405;DHT22;11875;49.356;2.718;2023-04-03T06:51:35;6.90;99.90
23405;DHT22;11875;49.356;2.718;2023-04-03T06:54:02;7.00;99.90
23405;DHT22;11875;49.356;2.718;2023-04-03T06:56:28;7.60;99.90
23405;DHT22;11875;49.356;2.718;2023-04-03T06:58:55;7.10;99.90
23405;DHT22;11875;49.356;2.718;2023-04-03T07:01:24;7.10;99.90
23405;DHT22;11875;49.356;2.718;2023-04-03T07:03:50;7.20;99.90
23405;DHT22;11875;49.356;2.718;2023-04-03T07:06:16;7.80;99.90
23405;DHT22;11875;49.356;2.718;2023-04-03T07:08:43;7.30;99.90
23405;DHT22;11875;49.356;2.718;2023-04-03T07:11:10;7.40;99.90
23405;DHT22;11875;49.356;2.718;2023-04-03T07:13:36;7.40;99.90
23405;DHT22;11875;49.356;2.718;2023-04-03T07:16:03;7.50;99.90
23405;DHT22;11875;49.356;2.718;2023-04-03T07:18:30;7.50;99.90
23405;DHT22;11875;49.356;2.718;2023-04-03T07:20:56;8.30;99.90
23405;DHT22;11875;49.356;2.718;2023-04-03T07:23:22;7.50;99.90
23405;DHT22;11875;49.356;2.718;2023-04-03T07:25:49;7.50;99.90
23405;DHT22;11875;49.356;2.718;2023-04-03T07:28:16;7.20;99.90
23405;DHT22;11875;49.356;2.718;2023-04-03T07:30:44;7.80;99.90
23405;DHT22;11875;49.356;2.718;2023-04-03T07:33:10;7.30;99.90
23405;DHT22;11875;49.356;2.718;2023-04-03T07:35:37;7.40;99.90
23405;DHT22;11875;49.356;2.718;2023-04-03T07:38:02;7.50;99.90
23405;DHT22;11875;49.356;2.718;2023-04-03T07:40:28;7.60;99.90
23405;DHT22;11875;49.356;2.718;2023-04-03T07:42:53;7.80;99.90
23405;DHT22;11875;49.356;2.718;2023-04-03T07:45:21;8.10;99.90
23405;DHT22;11875;49.356;2.718;2023-04-03T07:47:48;8.50;99.90
23405;DHT22;11875;49.356;2.718;2023-04-03T07:50:14;9.30;99.90
23405;DHT22;11875;49.356;2.718;2023-04-03T07:52:39;9.40;99.90
23405;DHT22;11875;49.356;2.718;2023-04-03T07:55:06;9.90;99.90
23405;DHT22;11875;49.356;2.718;2023-04-03T07:57:31;10.30;99.90
23405;DHT22;11875;49.356;2.718;2023-04-03T07:59:57;10.40;99.90
23405;DHT22;11875;49.356;2.718;2023-04-03T08:02:23;10.40;99.90
23405;DHT22;11875;49.356;2.718;2023-04-03T08:04:48;10.30;99.90
23405;DHT22;11875;49.356;2.718;2023-04-03T08:07:14;10.40;99.90
23405;DHT22;11875;49.356;2.718;2023-04-03T08:09:39;10.20;99.90
23405;DHT22;11875;49.356;2.718;2023-04-03T08:12:05;9.70;99.90
23405;DHT22;11875;49.356;2.718;2023-04-03T08:14:32;9.60;99.90
23405;DHT22;11875;49.356;2.718;2023-04-03T08:17:00;9.80;99.90
23405;DHT22;11875;49.356;2.718;2023-04-03T08:19:26;10.10;99.90
23405;DHT22;11875;49.356;2.718;2023-04-03T08:21:55;10.20;99.90
23405;DHT22;11875;49.356;2.718;2023-04-03T08:24:22;10.10;99.90
23405;DHT22;11875;49.356;2.718;2023-04-03T08:26:48;10.10;99.90
23405;DHT22;11875;49.356;2.718;2023-04-03T08:29:13;10.10;99.90
23405;DHT22;11875;49.356;2.718;2023-04-03T08:31:39;10.10;99.90
23405;DHT22;11875;49.356;2.718;2023-04-03T08:34:04;10.20;99.90
23405;DHT22;11875;49.356;2.718;2023-04-03T08:36:30;10.20;99.90
23405;DHT22;11875;49.356;2.718;2023-04-03T08:38:57;10.20;99.90
23405;DHT22;11875;49.356;2.718;2023-04-03T08:41:43;10.10;99.90
23405;DHT22;11875;49.356;2.718;2023-04-03T08:47:10;10.10;99.90
23405;DHT22;11875;49.356;2.718;2023-04-03T08:52:15;10.50;99.90
23405;DHT22;11875;49.356;2.718;2023-04-03T08:54:49;10.20;99.90
23405;DHT22;11875;49.356;2.718;2023-04-03T08:57:18;10.20;99.90
23405;DHT22;11875;49.356;2.718;2023-04-03T08:59:45;10.10;99.90
23405;DHT22;11875;49.356;2.718;2023-04-03T09:02:28;10.20;99.90
23405;DHT22;11875;49.356;2.718;2023-04-03T09:04:56;10.20;99.90
23405;DHT22;11875;49.356;2.718;2023-04-03T09:07:57;10.30;99.90
23405;DHT22;11875;49.356;2.718;2023-04-03T09:10:28;10.60;99.90
23405;DHT22;11875;49.356;2.718;2023-04-03T09:15:52;10.90;99.90
23405;DHT22;11875;49.356;2.718;2023-04-03T09:18:31;11.00;99.90
23405;DHT22;11875;49.356;2.718;2023-04-03T09:21:27;11.30;99.90
23405;DHT22;11875;49.356;2.718;2023-04-03T09:23:59;11.40;99.90
23405;DHT22;11875;49.356;2.718;2023-04-03T09:26:31;11.40;99.90
23405;DHT22;11875;49.356;2.718;2023-04-03T09:29:02;11.40;99.90
23405;DHT22;11875;49.356;2.718;2023-04-03T09:31:39;11.40;99.90
23405;DHT22;11875;49.356;2.718;2023-04-03T09:36:55;11.40;99.90
23405;DHT22;11875;49.356;2.718;2023-04-03T09:39:27;11.20;99.90
23405;DHT22;11875;49.356;2.718;2023-04-03T09:41:56;11.40;99.90
23405;DHT22;11875;49.356;2.718;2023-04-03T09:44:25;11.20;99.90
23405;DHT22;11875;49.356;2.718;2023-04-03T09:46:52;11.20;99.90
23405;DHT22;11875;49.356;2.718;2023-04-03T09:49:18;11.10;99.90
23405;DHT22;11875;49.356;2.718;2023-04-03T09:51:45;11.20;99.90
23405;DHT22;11875;49.356;2.718;2023-04-03T09:57:08;11.30;99.90
23405;DHT22;11875;49.356;2.718;2023-04-03T09:59:34;11.30;99.90
23405;DHT22;11875;49.356;2.718;2023-04-03T10:02:15;11.30;99.90
23405;DHT22;11875;49.356;2.718;2023-04-03T10:04:44;11.40;99.90
23405;DHT22;11875;49.356;2.718;2023-04-03T10:09:57;11.50;99.90
23405;DHT22;11875;49.356;2.718;2023-04-03T10:12:23;11.50;99.90
23405;DHT22;11875;49.356;2.718;2023-04-03T10:14:59;11.50;99.90
23405;DHT22;11875;49.356;2.718;2023-04-03T10:25:52;11.40;99.90
23405;DHT22;11875;49.356;2.718;2023-04-03T10:28:20;11.50;99.90
23405;DHT22;11875;49.356;2.718;2023-04-03T10:33:45;11.30;99.90
23405;DHT22;11875;49.356;2.718;2023-04-03T10:55:27;12.00;99.90
23405;DHT22;11875;49.356;2.718;2023-04-03T10:57:49;12.20;99.90
23405;DHT22;11875;49.356;2.718;2023-04-03T11:00:21;12.10;99.90
23405;DHT22;11875;49.356;2.718;2023-04-03T11:02:59;12.00;99.90
23405;DHT22;11875;49.356;2.718;2023-04-03T11:05:42;12.00;99.90
23405;DHT22;11875;49.356;2.718;2023-04-03T11:08:26;12.00;99.90
23405;DHT22;11875;49.356;2.718;2023-04-03T11:11:00;11.90;99.90
23405;DHT22;11875;49.356;2.718;2023-04-03T11:16:17;11.90;99.90
23405;DHT22;11875;49.356;2.718;2023-04-03T11:18:53;11.90;99.90
23405;DHT22;11875;49.356;2.718;2023-04-03T11:21:23;11.70;99.90
23405;DHT22;11875;49.356;2.718;2023-04-03T11:23:51;11.70;99.90
23405;DHT22;11875;49.356;2.718;2023-04-03T11:26:22;11.70;99.90
23405;DHT22;11875;49.356;2.718;2023-04-03T11:28:53;11.90;99.90
23405;DHT22;11875;49.356;2.718;2023-04-03T11:31:43;11.90;99.90
23405;DHT22;11875;49.356;2.718;2023-04-03T11:34:44;12.30;99.90
23405;DHT22;11875;49.356;2.718;2023-04-03T11:37:16;12.50;99.90
23405;DHT22;11875;49.356;2.718;2023-04-03T11:40:08;12.70;99.90
23405;DHT22;11875;49.356;2.718;2023-04-03T11:42:40;12.80;99.90
23405;DHT22;11875;49.356;2.718;2023-04-03T11:47:49;12.70;99.90
23405;DHT22;11875;49.356;2.718;2023-04-03T11:50:42;12.80;99.90
23405;DHT22;11875;49.356;2.718;2023-04-03T11:58:23;12.60;99.90
23405;DHT22;11875;49.356;2.718;2023-04-03T12:01:05;12.80;99.90
23405;DHT22;11875;49.356;2.718;2023-04-03T12:04:03;13.10;99.90
23405;DHT22;11875;49.356;2.718;2023-04-03T12:08:58;13.20;99.90
23405;DHT22;11875;49.356;2.718;2023-04-03T12:11:28;13.20;99.90
23405;DHT22;11875;49.356;2.718;2023-04-03T12:16:27;13.90;99.90
23405;DHT22;11875;49.356;2.718;2023-04-03T12:22:05;14.20;99.90
23405;DHT22;11875;49.356;2.718;2023-04-03T12:35:30;13.60;99.90
23405;DHT22;11875;49.356;2.718;2023-04-03T12:46:18;13.90;99.90
23405;DHT22;11875;49.356;2.718;2023-04-03T12:51:14;13.70;99.90
23405;DHT22;11875;49.356;2.718;2023-04-03T12:53:40;13.80;99.90
23405;DHT22;11875;49.356;2.718;2023-04-03T12:56:27;13.80;99.90
23405;DHT22;11875;49.356;2.718;2023-04-03T12:58:56;13.60;99.90
23405;DHT22;11875;49.356;2.718;2023-04-03T13:01:37;13.70;99.90
23405;DHT22;11875;49.356;2.718;2023-04-03T13:04:03;13.70;99.90
23405;DHT22;11875;49.356;2.718;2023-04-03T13:06:41;13.60;99.90
23405;DHT22;11875;49.356;2.718;2023-04-03T13:09:29;13.70;99.90
23405;DHT22;11875;49.356;2.718;2023-04-03T13:12:01;13.80;99.90
23405;DHT22;11875;49.356;2.718;2023-04-03T13:14:29;14.00;99.90
23405;DHT22;11875;49.356;2.718;2023-04-03T13:16:58;13.80;99.90
23405;DHT22;11875;49.356;2.718;2023-04-03T13:19:27;13.70;99.90
23405;DHT22;11875;49.356;2.718;2023-04-03T13:22:01;13.90;99.90
23405;DHT22;11875;49.356;2.718;2023-04-03T13:24:29;14.10;99.90
23405;DHT22;11875;49.356;2.718;2023-04-03T13:26:56;14.10;99.90
23405;DHT22;11875;49.356;2.718;2023-04-03T13:29:29;14.20;99.90
23405;DHT22;11875;49.356;2.718;2023-04-03T13:31:56;14.10;99.90
23405;DHT22;11875;49.356;2.718;2023-04-03T13:34:24;13.50;99.90
23405;DHT22;11875;49.356;2.718;2023-04-03T13:36:57;14.10;99.90
23405;DHT22;11875;49.356;2.718;2023-04-03T13:39:35;14.20;99.90
23405;DHT22;11875;49.356;2.718;2023-04-03T13:42:26;14.20;99.90
23405;DHT22;11875;49.356;2.718;2023-04-03T13:45:25;14.20;99.90
23405;DHT22;11875;49.356;2.718;2023-04-03T13:48:11;14.10;99.90
23405;DHT22;11875;49.356;2.718;2023-04-03T13:50:56;14.00;99.90
23405;DHT22;11875;49.356;2.718;2023-04-03T13:53:22;14.00;99.90
23405;DHT22;11875;49.356;2.718;2023-04-03T13:58:29;13.90;99.90
23405;DHT22;11875;49.356;2.718;2023-04-03T14:01:10;13.90;99.90
23405;DHT22;11875;49.356;2.718;2023-04-03T14:03:52;13.90;99.90
23405;DHT22;11875;49.356;2.718;2023-04-03T14:06:18;14.10;99.90
23405;DHT22;11875;49.356;2.718;2023-04-03T14:08:45;14.20;99.90
23405;DHT22;11875;49.356;2.718;2023-04-03T14:11:17;14.40;99.90
23405;DHT22;11875;49.356;2.718;2023-04-03T14:13:45;14.40;99.90
23405;DHT22;11875;49.356;2.718;2023-04-03T14:16:18;14.40;99.90
23405;DHT22;11875;49.356;2.718;2023-04-03T14:18:45;14.40;99.90
23405;DHT22;11875;49.356;2.718;2023-04-03T14:21:13;14.40;99.90
23405;DHT22;11875;49.356;2.718;2023-04-03T14:23:39;14.50;99.90
23405;DHT22;11875;49.356;2.718;2023-04-03T14:26:23;14.60;99.90
23405;DHT22;11875;49.356;2.718;2023-04-03T14:28:52;14.60;99.60
23405;DHT22;11875;49.356;2.718;2023-04-03T14:31:19;14.80;99.90
23405;DHT22;11875;49.356;2.718;2023-04-03T14:33:45;14.80;99.40
23405;DHT22;11875;49.356;2.718;2023-04-03T14:36:16;14.70;99.60
23405;DHT22;11875;49.356;2.718;2023-04-03T14:38:43;14.70;99.90
23405;DHT22;11875;49.356;2.718;2023-04-03T14:41:13;14.70;99.30
23405;DHT22;11875;49.356;2.718;2023-04-03T14:43:39;14.70;99.00
23405;DHT22;11875;49.356;2.718;2023-04-03T14:46:17;14.60;99.30
23405;DHT22;11875;49.356;2.718;2023-04-03T14:48:44;14.60;99.20
23405;DHT22;11875;49.356;2.718;2023-04-03T14:51:11;14.80;99.10
23405;DHT22;11875;49.356;2.718;2023-04-03T14:53:38;15.00;99.00
23405;DHT22;11875;49.356;2.718;2023-04-03T14:56:11;15.00;98.90
23405;DHT22;11875;49.356;2.718;2023-04-03T14:58:37;14.90;98.90
23405;DHT22;11875;49.356;2.718;2023-04-03T15:01:02;15.10;98.40
23405;DHT22;11875;49.356;2.718;2023-04-03T15:03:28;15.20;98.50
23405;DHT22;11875;49.356;2.718;2023-04-03T15:05:54;15.30;98.00
23405;DHT22;11875;49.356;2.718;2023-04-03T15:08:25;15.30;98.20
23405;DHT22;11875;49.356;2.718;2023-04-03T15:10:52;15.30;98.50
23405;DHT22;11875;49.356;2.718;2023-04-03T15:13:24;15.40;97.90
23405;DHT22;11875;49.356;2.718;2023-04-03T15:15:51;15.40;97.80
23405;DHT22;11875;49.356;2.718;2023-04-03T15:18:20;15.50;97.50
23405;DHT22;11875;49.356;2.718;2023-04-03T15:20:47;15.50;97.70
23405;DHT22;11875;49.356;2.718;2023-04-03T15:23:15;15.50;97.40
23405;DHT22;11875;49.356;2.718;2023-04-03T15:25:47;15.60;97.50
23405;DHT22;11875;49.356;2.718;2023-04-03T15:28:26;15.60;97.10
23405;DHT22;11875;49.356;2.718;2023-04-03T15:30:53;15.50;97.30
23405;DHT22;11875;49.356;2.718;2023-04-03T15:33:19;15.40;97.60
23405;DHT22;11875;49.356;2.718;2023-04-03T15:35:45;15.30;97.70
23405;DHT22;11875;49.356;2.718;2023-04-03T15:38:10;15.20;98.20
23405;DHT22;11875;49.356;2.718;2023-04-03T15:40:36;15.30;98.20
23405;DHT22;11875;49.356;2.718;2023-04-03T15:43:03;15.30;97.60
23405;DHT22;11875;49.356;2.718;2023-04-03T15:45:29;15.10;97.70
23405;DHT22;11875;49.356;2.718;2023-04-03T15:47:56;15.00;98.00
23405;DHT22;11875;49.356;2.718;2023-04-03T15:50:22;15.00;98.20
23405;DHT22;11875;49.356;2.718;2023-04-03T15:52:50;15.10;97.80
23405;DHT22;11875;49.356;2.718;2023-04-03T15:55:21;15.10;97.90
23405;DHT22;11875;49.356;2.718;2023-04-03T15:57:46;14.90;97.40
23405;DHT22;11875;49.356;2.718;2023-04-03T16:00:12;14.80;97.30
23405;DHT22;11875;49.356;2.718;2023-04-03T16:02:38;14.70;97.90
23405;DHT22;11875;49.356;2.718;2023-04-03T16:05:05;14.60;98.20
23405;DHT22;11875;49.356;2.718;2023-04-03T16:07:31;14.60;98.30
23405;DHT22;11875;49.356;2.718;2023-04-03T16:09:56;14.50;98.50
23405;DHT22;11875;49.356;2.718;2023-04-03T16:12:22;14.60;98.40
23405;DHT22;11875;49.356;2.718;2023-04-03T16:14:47;14.70;98.40
23405;DHT22;11875;49.356;2.718;2023-04-03T16:17:13;14.80;98.50
23405;DHT22;11875;49.356;2.718;2023-04-03T16:19:39;14.80;98.10
23405;DHT22;11875;49.356;2.718;2023-04-03T16:22:04;14.80;97.80
23405;DHT22;11875;49.356;2.718;2023-04-03T16:24:30;14.80;98.60
23405;DHT22;11875;49.356;2.718;2023-04-03T16:26:57;14.70;97.80
23405;DHT22;11875;49.356;2.718;2023-04-03T16:29:23;14.50;98.10
23405;DHT22;11875;49.356;2.718;2023-04-03T16:31:49;14.40;98.80
23405;DHT22;11875;49.356;2.718;2023-04-03T16:34:15;14.30;99.20
23405;DHT22;11875;49.356;2.718;2023-04-03T16:36:41;14.30;99.20
23405;DHT22;11875;49.356;2.718;2023-04-03T16:39:06;14.30;99.40
23405;DHT22;11875;49.356;2.718;2023-04-03T16:41:35;14.30;99.50
23405;DHT22;11875;49.356;2.718;2023-04-03T16:44:00;14.20;98.80
23405;DHT22;11875;49.356;2.718;2023-04-03T16:46:26;14.20;98.80
23405;DHT22;11875;49.356;2.718;2023-04-03T16:48:52;14.20;99.10
23405;DHT22;11875;49.356;2.718;2023-04-03T16:51:17;14.20;99.20
23405;DHT22;11875;49.356;2.718;2023-04-03T16:53:43;14.30;98.80
23405;DHT22;11875;49.356;2.718;2023-04-03T16:56:08;14.40;98.70
23405;DHT22;11875;49.356;2.718;2023-04-03T16:58:34;14.30;98.30
23405;DHT22;11875;49.356;2.718;2023-04-03T17:01:11;14.20;98.00
23405;DHT22;11875;49.356;2.718;2023-04-03T17:03:37;14.10;98.10
23405;DHT22;11875;49.356;2.718;2023-04-03T17:06:03;14.10;98.40
23405;DHT22;11875;49.356;2.718;2023-04-03T17:08:29;14.10;98.60
23405;DHT22;11875;49.356;2.718;2023-04-03T17:10:54;14.00;98.70
23405;DHT22;11875;49.356;2.718;2023-04-03T17:13:20;14.00;98.90
23405;DHT22;11875;49.356;2.718;2023-04-03T17:15:46;14.00;99.00
23405;DHT22;11875;49.356;2.718;2023-04-03T17:18:12;14.00;99.10
23405;DHT22;11875;49.356;2.718;2023-04-03T17:20:37;14.10;99.30